sensor_id;sensor_type;location;lat;lon;timestamp;pressure;altitude;pressure_sealevel;temperature;humidity
40315;BME280;26021;45.640;11.302;2023-04-01T00:01:10;97589.16;;;7.03;100.00
40315;BME280;26021;45.640;11.302;2023-04-01T00:03:39;97584.44;;;7.19;100.00
40315;BME280;26021;45.640;11.302;2023-04-01T00:06:04;97586.72;;;7.22;100.00
40315;BME280;26021;45.640;11.302;2023-04-01T00:08:30;97580.78;;;7.20;100.00
40315;BME280;26021;45.640;11.302;2023-04-01T00:10:56;97584.13;;;7.44;100.00
40315;BME280;26021;45.640;11.302;2023-04-01T00:13:22;97586.31;;;7.40;100.00
40315;BME280;26021;45.640;11.302;2023-04-01T00:15:48;97580.97;;;7.19;100.00
40315;BME280;26021;45.640;11.302;2023-04-01T00:18:14;97586.91;;;7.21;100.00
40315;BME280;26021;45.640;11.302;2023-04-01T00:20:46;97415.75;;;5.91;100.00
40315;BME280;26021;45.640;11.302;2023-04-01T00:23:13;97595.66;;;7.00;100.00
40315;BME280;26021;45.640;11.302;2023-04-01T00:25:38;97593.31;;;7.26;100.00
40315;BME280;26021;45.640;11.302;2023-04-01T00:28:04;97594.34;;;7.25;100.00
40315;BME280;26021;45.640;11.302;2023-04-01T00:30:29;97586.25;;;7.33;100.00
40315;BME280;26021;45.640;11.302;2023-04-01T00:32:55;97559.91;;;7.03;100.00
40315;BME280;26021;45.640;11.302;2023-04-01T00:35:20;97536.25;;;6.93;100.00
40315;BME280;26021;45.640;11.302;2023-04-01T00:37:46;97585.34;;;7.26;100.00
40315;BME280;26021;45.640;11.302;2023-04-01T00:40:42;97583.34;;;7.14;100.00
40315;BME280;26021;45.640;11.302;2023-04-01T00:43:14;97549.19;;;6.96;100.00
40315;BME280;26021;45.640;11.302;2023-04-01T00:45:42;97590.41;;;7.21;100.00
40315;BME280;26021;45.640;11.302;2023-04-01T00:48:17;97593.22;;;7.34;100.00
40315;BME280;26021;45.640;11.302;2023-04-01T00:50:50;97559.50;;;7.20;100.00
40315;BME280;26021;45.640;11.302;2023-04-01T00:53:17;97582.31;;;7.44;100.00
40315;BME280;26021;45.640;11.302;2023-04-01T00:55:49;97589.03;;;7.61;100.00
40315;BME280;26021;45.640;11.302;2023-04-01T00:58:18;97581.75;;;7.49;100.00
40315;BME280;26021;45.640;11.302;2023-04-01T01:00:46;97583.31;;;7.43;100.00
40315;BME280;26021;45.640;11.302;2023-04-01T01:03:14;97533.31;;;7.03;100.00
40315;BME280;26021;45.640;11.302;2023-04-01T01:08:33;97590.84;;;7.25;100.00
40315;BME280;26021;45.640;11.302;2023-04-01T01:11:05;97575.72;;;7.25;100.00
40315;BME280;26021;45.640;11.302;2023-04-01T01:13:43;97561.06;;;7.15;100.00
40315;BME280;26021;45.640;11.302;2023-04-01T01:16:27;97595.31;;;7.39;100.00
40315;BME280;26021;45.640;11.302;2023-04-01T01:19:02;97587.25;;;7.47;100.00
40315;BME280;26021;45.640;11.302;2023-04-01T01:27:18;97590.53;;;6.98;100.00
40315;BME280;26021;45.640;11.302;2023-04-01T01:30:01;97492.94;;;6.33;100.00
40315;BME280;26021;45.640;11.302;2023-04-01T01:33:06;97584.66;;;7.03;100.00
40315;BME280;26021;45.640;11.302;2023-04-01T01:35:39;97591.34;;;6.99;100.00
40315;BME280;26021;45.640;11.302;2023-04-01T01:38:11;97569.16;;;7.07;100.00
40315;BME280;26021;45.640;11.302;2023-04-01T01:40:41;97594.59;;;7.30;100.00
40315;BME280;26021;45.640;11.302;2023-04-01T01:43:11;97564.84;;;7.06;100.00
40315;BME280;26021;45.640;11.302;2023-04-01T01:45:42;97573.19;;;7.03;100.00
40315;BME280;26021;45.640;11.302;2023-04-01T01:48:08;97592.03;;;7.22;100.00
40315;BME280;26021;45.640;11.302;2023-04-01T01:50:36;97581.41;;;7.22;100.00
40315;BME280;26021;45.640;11.302;2023-04-01T01:53:05;97584.47;;;7.05;100.00
40315;BME280;26021;45.640;11.302;2023-04-01T01:55:36;97582.44;;;7.07;100.00
40315;BME280;26021;45.640;11.302;2023-04-01T01:58:13;97571.53;;;7.16;100.00
40315;BME280;26021;45.640;11.302;2023-04-01T02:00:42;97577.25;;;7.34;100.00
40315;BME280;26021;45.640;11.302;2023-04-01T02:03:10;97550.63;;;7.13;100.00
40315;BME280;26021;45.640;11.302;2023-04-01T02:05:37;97569.16;;;7.07;100.00
40315;BME280;26021;45.640;11.302;2023-04-01T02:08:28;97350.47;;;5.67;100.00
40315;BME280;26021;45.640;11.302;2023-04-01T02:11:17;97590.06;;;6.80;100.00
40315;BME280;26021;45.640;11.302;2023-04-01T02:14:11;97578.97;;;6.91;100.00
40315;BME280;26021;45.640;11.302;2023-04-01T02:16:55;97565.44;;;6.72;100.00
40315;BME280;26021;45.640;11.302;2023-04-01T02:19:30;97579.25;;;6.82;100.00
40315;BME280;26021;45.640;11.302;2023-04-01T02:22:00;97594.66;;;6.72;100.00
40315;BME280;26021;45.640;11.302;2023-04-01T02:24:28;97589.97;;;6.74;100.00
40315;BME280;26021;45.640;11.302;2023-04-01T02:26:55;97578.59;;;6.50;100.00
40315;BME280;26021;45.640;11.302;2023-04-01T02:29:23;97599.38;;;6.61;100.00
40315;BME280;26021;45.640;11.302;2023-04-01T02:31:50;97453.66;;;5.77;100.00
40315;BME280;26021;45.640;11.302;2023-04-01T02:34:18;97538.19;;;6.40;100.00
40315;BME280;26021;45.640;11.302;2023-04-01T02:36:44;97591.50;;;6.68;100.00
40315;BME280;26021;45.640;11.302;2023-04-01T02:39:10;97505.47;;;6.10;100.00
40315;BME280;26021;45.640;11.302;2023-04-01T02:41:41;97585.75;;;6.64;100.00
40315;BME280;26021;45.640;11.302;2023-04-01T02:44:07;97552.56;;;6.46;100.00
40315;BME280;26021;45.640;11.302;2023-04-01T02:46:32;97575.66;;;6.60;100.00
40315;BME280;26021;45.640;11.302;2023-04-01T02:48:58;97570.81;;;6.49;100.00
40315;BME280;26021;45.640;11.302;2023-04-01T02:51:23;97581.78;;;6.60;100.00
40315;BME280;26021;45.640;11.302;2023-04-01T02:53:49;97574.59;;;6.69;100.00
40315;BME280;26021;45.640;11.302;2023-04-01T02:56:14;97548.00;;;6.54;100.00
40315;BME280;26021;45.640;11.302;2023-04-01T02:58:40;97287.88;;;4.76;100.00
40315;BME280;26021;45.640;11.302;2023-04-01T03:01:05;97556.34;;;6.51;100.00
40315;BME280;26021;45.640;11.302;2023-04-01T03:03:31;97454.97;;;5.81;100.00
40315;BME280;26021;45.640;11.302;2023-04-01T03:05:56;97562.19;;;6.47;100.00
40315;BME280;26021;45.640;11.302;2023-04-01T03:08:23;97534.91;;;6.53;100.00
40315;BME280;26021;45.640;11.302;2023-04-01T03:10:49;97561.31;;;6.69;100.00
40315;BME280;26021;45.640;11.302;2023-04-01T03:13:14;97561.63;;;6.51;100.00
40315;BME280;26021;45.640;11.302;2023-04-01T03:15:40;97562.00;;;6.48;100.00
40315;BME280;26021;45.640;11.302;2023-04-01T03:18:05;97569.22;;;6.40;100.00
40315;BME280;26021;45.640;11.302;2023-04-01T03:20:31;97571.44;;;6.51;100.00
40315;BME280;26021;45.640;11.302;2023-04-01T03:22:56;97530.88;;;6.42;100.00
40315;BME280;26021;45.640;11.302;2023-04-01T03:25:22;97494.31;;;6.15;100.00
40315;BME280;26021;45.640;11.302;2023-04-01T03:27:48;97517.66;;;6.04;100.00
40315;BME280;26021;45.640;11.302;2023-04-01T03:30:13;97573.00;;;6.60;100.00
40315;BME280;26021;45.640;11.302;2023-04-01T03:32:39;97567.13;;;6.35;100.00
40315;BME280;26021;45.640;11.302;2023-04-01T03:35:05;97560.63;;;6.52;100.00
40315;BME280;26021;45.640;11.302;2023-04-01T03:37:30;97568.94;;;6.20;100.00
40315;BME280;26021;45.640;11.302;2023-04-01T03:39:57;97561.16;;;6.18;100.00
40315;BME280;26021;45.640;11.302;2023-04-01T03:42:22;97539.66;;;5.90;100.00
40315;BME280;26021;45.640;11.302;2023-04-01T03:44:48;97564.47;;;6.35;100.00
40315;BME280;26021;45.640;11.302;2023-04-01T03:47:13;97561.78;;;6.20;100.00
40315;BME280;26021;45.640;11.302;2023-04-01T03:49:39;97484.91;;;5.52;100.00
40315;BME280;26021;45.640;11.302;2023-04-01T03:52:09;97556.47;;;6.05;100.00
40315;BME280;26021;45.640;11.302;2023-04-01T03:54:34;97552.09;;;5.90;100.00
40315;BME280;26021;45.640;11.302;2023-04-01T03:57:00;97542.06;;;6.00;100.00
40315;BME280;26021;45.640;11.302;2023-04-01T03:59:26;97524.88;;;5.88;100.00
40315;BME280;26021;45.640;11.302;2023-04-01T04:01:51;97552.72;;;5.92;100.00
40315;BME280;26021;45.640;11.302;2023-04-01T04:04:16;97551.03;;;5.99;100.00
40315;BME280;26021;45.640;11.302;2023-04-01T04:06:42;97560.66;;;6.00;100.00
40315;BME280;26021;45.640;11.302;2023-04-01T04:09:08;97560.38;;;5.87;100.00
40315;BME280;26021;45.640;11.302;2023-04-01T04:11:33;97566.47;;;5.72;100.00
40315;BME280;26021;45.640;11.302;2023-04-01T04:13:59;97555.66;;;5.74;100.00
40315;BME280;26021;45.640;11.302;2023-04-01T04:16:25;97486.78;;;5.20;100.00
40315;BME280;26021;45.640;11.302;2023-04-01T04:18:50;97467.63;;;5.10;100.00
40315;BME280;26021;45.640;11.302;2023-04-01T04:21:16;97548.66;;;5.58;100.00
40315;BME280;26021;45.640;11.302;2023-04-01T04:23:42;97492.38;;;5.48;100.00
40315;BME280;26021;45.640;11.302;2023-04-01T04:26:11;97562.09;;;5.80;100.00
40315;BME280;26021;45.640;11.302;2023-04-01T04:28:37;97567.03;;;5.83;100.00
40315;BME280;26021;45.640;11.302;2023-04-01T04:31:03;97568.94;;;5.74;100.00
40315;BME280;26021;45.640;11.302;2023-04-01T04:33:30;97567.69;;;5.85;100.00
40315;BME280;26021;45.640;11.302;2023-04-01T04:35:57;97573.81;;;5.62;100.00
40315;BME280;26021;45.640;11.302;2023-04-01T04:38:23;97567.81;;;5.68;100.00
40315;BME280;26021;45.640;11.302;2023-04-01T04:40:49;97580.31;;;5.60;100.00
40315;BME280;26021;45.640;11.302;2023-04-01T04:43:15;97558.16;;;5.53;100.00
40315;BME280;26021;45.640;11.302;2023-04-01T04:45:41;97530.88;;;5.44;100.00
40315;BME280;26021;45.640;11.302;2023-04-01T04:48:08;97579.84;;;5.79;100.00
40315;BME280;26021;45.640;11.302;2023-04-01T04:50:35;97580.25;;;5.68;100.00
40315;BME280;26021;45.640;11.302;2023-04-01T04:53:00;97574.34;;;5.58;100.00
40315;BME280;26021;45.640;11.302;2023-04-01T04:55:26;97539.56;;;5.30;100.00
40315;BME280;26021;45.640;11.302;2023-04-01T04:57:51;97588.38;;;5.43;100.00
40315;BME280;26021;45.640;11.302;2023-04-01T05:00:17;97589.34;;;5.73;100.00
40315;BME280;26021;45.640;11.302;2023-04-01T05:02:43;97599.09;;;5.50;100.00
40315;BME280;26021;45.640;11.302;2023-04-01T05:05:08;97603.19;;;5.61;100.00
40315;BME280;26021;45.640;11.302;2023-04-01T05:07:34;97601.22;;;5.55;100.00
40315;BME280;26021;45.640;11.302;2023-04-01T05:09:59;97546.47;;;5.39;100.00
40315;BME280;26021;45.640;11.302;2023-04-01T05:12:25;97598.88;;;5.83;100.00
40315;BME280;26021;45.640;11.302;2023-04-01T05:14:50;97539.66;;;5.45;100.00
40315;BME280;26021;45.640;11.302;2023-04-01T05:17:16;97600.81;;;5.89;100.00
40315;BME280;26021;45.640;11.302;2023-04-01T05:19:41;97599.81;;;5.98;100.00
40315;BME280;26021;45.640;11.302;2023-04-01T05:22:07;97601.69;;;5.89;100.00
40315;BME280;26021;45.640;11.302;2023-04-01T05:24:33;97603.00;;;5.85;100.00
40315;BME280;26021;45.640;11.302;2023-04-01T05:26:59;97604.94;;;5.68;100.00
40315;BME280;26021;45.640;11.302;2023-04-01T05:29:25;97613.03;;;5.75;100.00
40315;BME280;26021;45.640;11.302;2023-04-01T05:31:51;97611.63;;;5.87;100.00
40315;BME280;26021;45.640;11.302;2023-04-01T05:34:17;97612.16;;;5.83;100.00
40315;BME280;26021;45.640;11.302;2023-04-01T05:36:43;97538.34;;;5.40;100.00
40315;BME280;26021;45.640;11.302;2023-04-01T05:39:09;97586.78;;;5.80;100.00
40315;BME280;26021;45.640;11.302;2023-04-01T05:41:35;97561.97;;;5.73;100.00
40315;BME280;26021;45.640;11.302;2023-04-01T05:44:01;97611.75;;;5.94;100.00
40315;BME280;26021;45.640;11.302;2023-04-01T05:46:27;97614.28;;;5.87;100.00
40315;BME280;26021;45.640;11.302;2023-04-01T05:48:53;97622.41;;;5.86;100.00
40315;BME280;26021;45.640;11.302;2023-04-01T05:51:18;97597.81;;;5.69;100.00
40315;BME280;26021;45.640;11.302;2023-04-01T05:53:44;97623.94;;;5.80;100.00
40315;BME280;26021;45.640;11.302;2023-04-01T05:56:10;97632.06;;;5.79;100.00
40315;BME280;26021;45.640;11.302;2023-04-01T05:58:36;97637.81;;;5.98;100.00
40315;BME280;26021;45.640;11.302;2023-04-01T06:01:04;97641.16;;;5.84;100.00
40315;BME280;26021;45.640;11.302;2023-04-01T06:03:30;97628.19;;;5.97;100.00
40315;BME280;26021;45.640;11.302;2023-04-01T06:05:55;97562.97;;;5.72;100.00
40315;BME280;26021;45.640;11.302;2023-04-01T06:08:21;97651.59;;;6.54;100.00
40315;BME280;26021;45.640;11.302;2023-04-01T06:19:09;97565.38;;;6.27;100.00
40315;BME280;26021;45.640;11.302;2023-04-01T06:39:04;97665.38;;;7.97;100.00
40315;BME280;26021;45.640;11.302;2023-04-01T06:41:41;97675.13;;;8.75;100.00
40315;BME280;26021;45.640;11.302;2023-04-01T06:58:13;97619.13;;;9.44;100.00
40315;BME280;26021;45.640;11.302;2023-04-01T07:00:44;97678.22;;;9.82;100.00
40315;BME280;26021;45.640;11.302;2023-04-01T07:05:43;97676.75;;;10.61;100.00
40315;BME280;26021;45.640;11.302;2023-04-01T07:08:12;97607.22;;;10.34;100.00
40315;BME280;26021;45.640;11.302;2023-04-01T07:11:03;97673.69;;;10.70;100.00
40315;BME280;26021;45.640;11.302;2023-04-01T07:13:34;97671.84;;;10.64;100.00
40315;BME280;26021;45.640;11.302;2023-04-01T07:18:34;97671.41;;;10.94;100.00
40315;BME280;26021;45.640;11.302;2023-04-01T07:21:02;97681.47;;;11.25;100.00
40315;BME280;26021;45.640;11.302;2023-04-01T07:23:40;97661.59;;;11.59;100.00
40315;BME280;26021;45.640;11.302;2023-04-01T07:26:20;97669.75;;;11.90;100.00
40315;BME280;26021;45.640;11.302;2023-04-01T07:28:46;97666.88;;;12.23;100.00
40315;BME280;26021;45.640;11.302;2023-04-01T07:36:45;97675.84;;;12.04;100.00
40315;BME280;26021;45.640;11.302;2023-04-01T07:39:51;97680.50;;;12.22;100.00
40315;BME280;26021;45.640;11.302;2023-04-01T07:50:32;97676.69;;;13.17;100.00
40315;BME280;26021;45.640;11.302;2023-04-01T07:56:01;97679.78;;;13.39;100.00
40315;BME280;26021;45.640;11.302;2023-04-01T08:01:17;97622.72;;;13.00;100.00
40315;BME280;26021;45.640;11.302;2023-04-01T08:06:35;97685.47;;;13.24;100.00
40315;BME280;26021;45.640;11.302;2023-04-01T08:12:17;97676.88;;;13.41;100.00
40315;BME280;26021;45.640;11.302;2023-04-01T08:14:59;97473.22;;;12.03;100.00
40315;BME280;26021;45.640;11.302;2023-04-01T08:20:48;97672.09;;;13.43;100.00
40315;BME280;26021;45.640;11.302;2023-04-01T08:23:19;97673.38;;;13.58;100.00
40315;BME280;26021;45.640;11.302;2023-04-01T08:25:56;97669.56;;;13.48;100.00
40315;BME280;26021;45.640;11.302;2023-04-01T08:28:25;97672.63;;;13.70;100.00
40315;BME280;26021;45.640;11.302;2023-04-01T08:31:05;97673.63;;;13.87;100.00
40315;BME280;26021;45.640;11.302;2023-04-01T08:33:34;97674.75;;;13.97;100.00
40315;BME280;26021;45.640;11.302;2023-04-01T08:36:16;97644.16;;;13.80;100.00
40315;BME280;26021;45.640;11.302;2023-04-01T08:38:50;97672.03;;;14.16;100.00
40315;BME280;26021;45.640;11.302;2023-04-01T08:52:54;97679.94;;;14.41;100.00
40315;BME280;26021;45.640;11.302;2023-04-01T08:55:02;97680.75;;;14.29;100.00
40315;BME280;26021;45.640;11.302;2023-04-01T09:00:30;97660.16;;;14.05;100.00
40315;BME280;26021;45.640;11.302;2023-04-01T09:15:14;97685.41;;;14.04;100.00
40315;BME280;26021;45.640;11.302;2023-04-01T09:42:45;97687.72;;;15.02;100.00
40315;BME280;26021;45.640;11.302;2023-04-01T09:48:05;97682.91;;;15.27;100.00
40315;BME280;26021;45.640;11.302;2023-04-01T09:50:46;97685.38;;;15.41;100.00
40315;BME280;26021;45.640;11.302;2023-04-01T09:53:28;97685.84;;;15.14;100.00
40315;BME280;26021;45.640;11.302;2023-04-01T09:59:29;97626.63;;;14.91;100.00
40315;BME280;26021;45.640;11.302;2023-04-01T10:12:58;97678.34;;;15.40;100.00
40315;BME280;26021;45.640;11.302;2023-04-01T10:29:58;97670.34;;;15.56;100.00
40315;BME280;26021;45.640;11.302;2023-04-01T10:46:43;97662.53;;;16.07;100.00
40315;BME280;26021;45.640;11.302;2023-04-01T10:49:46;97661.47;;;16.08;100.00
40315;BME280;26021;45.640;11.302;2023-04-01T10:52:40;97666.34;;;15.82;100.00
40315;BME280;26021;45.640;11.302;2023-04-01T10:55:29;97672.81;;;15.46;100.00
40315;BME280;26021;45.640;11.302;2023-04-01T11:01:00;97663.94;;;15.22;100.00
40315;BME280;26021;45.640;11.302;2023-04-01T11:33:07;97667.47;;;14.88;100.00
40315;BME280;26021;45.640;11.302;2023-04-01T11:35:52;97662.31;;;15.10;100.00
40315;BME280;26021;45.640;11.302;2023-04-01T11:46:33;97652.38;;;14.99;100.00
40315;BME280;26021;45.640;11.302;2023-04-01T12:02:45;97665.13;;;15.15;100.00
40315;BME280;26021;45.640;11.302;2023-04-01T12:13:49;97621.81;;;14.93;100.00
40315;BME280;26021;45.640;11.302;2023-04-01T12:19:17;97669.56;;;15.21;100.00
40315;BME280;26021;45.640;11.302;2023-04-01T12:45:29;97650.31;;;15.76;100.00
40315;BME280;26021;45.640;11.302;2023-04-01T12:51:05;97647.97;;;15.56;97.79
40315;BME280;26021;45.640;11.302;2023-04-01T13:08:07;97658.03;;;16.86;89.89
40315;BME280;26021;45.640;11.302;2023-04-01T13:10:50;97654.38;;;16.64;87.29
40315;BME280;26021;45.640;11.302;2023-04-01T13:18:28;97655.38;;;16.29;88.25
40315;BME280;26021;45.640;11.302;2023-04-01T13:28:42;97654.44;;;16.80;86.60
40315;BME280;26021;45.640;11.302;2023-04-01T13:31:34;97649.34;;;17.18;80.61
40315;BME280;26021;45.640;11.302;2023-04-01T13:36:59;97626.97;;;18.04;72.84
40315;BME280;26021;45.640;11.302;2023-04-01T13:42:34;97609.66;;;18.32;62.78
40315;BME280;26021;45.640;11.302;2023-04-01T14:01:42;97559.94;;;18.12;43.80
40315;BME280;26021;45.640;11.302;2023-04-01T14:47:47;97520.94;;;18.07;58.65
40315;BME280;26021;45.640;11.302;2023-04-01T14:55:55;97493.09;;;17.58;56.84
40315;BME280;26021;45.640;11.302;2023-04-01T14:58:24;97519.13;;;17.64;57.49
40315;BME280;26021;45.640;11.302;2023-04-01T15:01:13;97512.81;;;17.81;53.70
40315;BME280;26021;45.640;11.302;2023-04-01T15:06:56;97511.88;;;17.92;53.00
40315;BME280;26021;45.640;11.302;2023-04-01T15:09:29;97513.13;;;18.11;51.84
40315;BME280;26021;45.640;11.302;2023-04-01T15:14:51;97514.75;;;18.44;50.15
40315;BME280;26021;45.640;11.302;2023-04-01T15:30:32;97512.31;;;18.42;46.79
40315;BME280;26021;45.640;11.302;2023-04-01T15:35:57;97511.38;;;18.59;46.85
40315;BME280;26021;45.640;11.302;2023-04-01T15:38:37;97509.97;;;18.56;46.28
40315;BME280;26021;45.640;11.302;2023-04-01T15:43:49;97480.38;;;17.81;46.54
40315;BME280;26021;45.640;11.302;2023-04-01T15:54:52;97505.69;;;17.47;43.11
40315;BME280;26021;45.640;11.302;2023-04-01T16:03:29;97499.50;;;17.25;39.51
40315;BME280;26021;45.640;11.302;2023-04-01T16:06:12;97509.69;;;17.01;40.89
40315;BME280;26021;45.640;11.302;2023-04-01T16:08:57;97515.03;;;16.96;39.34
40315;BME280;26021;45.640;11.302;2023-04-01T16:20:22;97509.19;;;16.82;37.84
40315;BME280;26021;45.640;11.302;2023-04-01T16:23:00;97493.91;;;16.71;37.18
40315;BME280;26021;45.640;11.302;2023-04-01T16:25:39;97450.66;;;16.33;38.76
40315;BME280;26021;45.640;11.302;2023-04-01T16:28:25;97509.13;;;16.61;38.97
40315;BME280;26021;45.640;11.302;2023-04-01T16:33:51;97495.81;;;16.37;39.42
40315;BME280;26021;45.640;11.302;2023-04-01T16:36:29;97431.97;;;16.09;38.56
40315;BME280;26021;45.640;11.302;2023-04-01T16:41:31;97471.84;;;16.41;37.96
40315;BME280;26021;45.640;11.302;2023-04-01T16:44:23;97492.03;;;16.55;37.56
40315;BME280;26021;45.640;11.302;2023-04-01T16:49:37;97450.59;;;16.28;38.01
40315;BME280;26021;45.640;11.302;2023-04-01T16:57:51;97500.72;;;16.40;39.56
40315;BME280;26021;45.640;11.302;2023-04-01T17:00:23;97492.44;;;16.47;39.12
40315;BME280;26021;45.640;11.302;2023-04-01T17:03:13;97494.16;;;16.53;38.98
40315;BME280;26021;45.640;11.302;2023-04-01T17:08:27;97486.06;;;16.53;38.94
40315;BME280;26021;45.640;11.302;2023-04-01T17:11:21;97490.56;;;16.14;40.79
40315;BME280;26021;45.640;11.302;2023-04-01T17:17:05;97402.78;;;15.27;43.97
40315;BME280;26021;45.640;11.302;2023-04-01T17:19:46;97385.44;;;15.07;45.85
40315;BME280;26021;45.640;11.302;2023-04-01T17:22:27;97498.84;;;15.62;47.54
40315;BME280;26021;45.640;11.302;2023-04-01T17:30:19;97505.66;;;15.13;50.80
40315;BME280;26021;45.640;11.302;2023-04-01T17:49:37;97544.22;;;14.55;55.84
40315;BME280;26021;45.640;11.302;2023-04-01T17:52:15;97547.31;;;14.28;57.98
40315;BME280;26021;45.640;11.302;2023-04-01T18:00:25;97555.78;;;14.02;64.03
40315;BME280;26021;45.640;11.302;2023-04-01T18:06:07;97452.13;;;13.23;64.78
40315;BME280;26021;45.640;11.302;2023-04-01T18:08:47;97570.72;;;13.98;66.32
40315;BME280;26021;45.640;11.302;2023-04-01T18:16:44;97569.59;;;13.46;71.73
40315;BME280;26021;45.640;11.302;2023-04-01T18:22:41;97511.03;;;12.99;74.39
40315;BME280;26021;45.640;11.302;2023-04-01T18:25:38;97593.63;;;13.41;76.42
40315;BME280;26021;45.640;11.302;2023-04-01T18:31:06;97523.19;;;13.02;78.10
40315;BME280;26021;45.640;11.302;2023-04-01T18:36:56;97620.41;;;13.47;76.90
40315;BME280;26021;45.640;11.302;2023-04-01T18:39:35;97619.41;;;13.23;80.89
40315;BME280;26021;45.640;11.302;2023-04-01T18:42:28;97629.00;;;13.13;85.63
40315;BME280;26021;45.640;11.302;2023-04-01T18:51:01;97627.53;;;13.17;83.94
40315;BME280;26021;45.640;11.302;2023-04-01T18:56:05;97648.03;;;13.29;84.56
40315;BME280;26021;45.640;11.302;2023-04-01T18:58:57;97647.91;;;12.99;87.87
40315;BME280;26021;45.640;11.302;2023-04-01T19:02:02;97649.84;;;13.17;87.39
40315;BME280;26021;45.640;11.302;2023-04-01T19:05:19;97652.22;;;13.25;86.52
40315;BME280;26021;45.640;11.302;2023-04-01T19:09:49;97671.69;;;12.96;89.17
40315;BME280;26021;45.640;11.302;2023-04-01T19:20:34;97638.91;;;12.69;91.36
40315;BME280;26021;45.640;11.302;2023-04-01T19:23:31;97695.09;;;12.89;90.91
40315;BME280;26021;45.640;11.302;2023-04-01T19:26:04;97702.31;;;12.88;89.40
40315;BME280;26021;45.640;11.302;2023-04-01T19:31:25;97711.47;;;12.81;94.79
40315;BME280;26021;45.640;11.302;2023-04-01T19:37:20;97712.16;;;12.94;100.00
40315;BME280;26021;45.640;11.302;2023-04-01T19:50:55;97673.94;;;12.74;100.00
40315;BME280;26021;45.640;11.302;2023-04-01T19:58:40;97727.78;;;13.04;100.00
40315;BME280;26021;45.640;11.302;2023-04-01T20:01:16;97720.81;;;12.96;100.00
40315;BME280;26021;45.640;11.302;2023-04-01T20:14:43;97755.75;;;12.90;100.00
40315;BME280;26021;45.640;11.302;2023-04-01T20:17:43;97750.63;;;12.88;100.00
40315;BME280;26021;45.640;11.302;2023-04-01T20:28:05;97719.84;;;12.59;100.00
40315;BME280;26021;45.640;11.302;2023-04-01T20:30:52;97751.69;;;12.81;100.00
40315;BME280;26021;45.640;11.302;2023-04-01T20:36:20;97765.16;;;12.74;100.00
40315;BME280;26021;45.640;11.302;2023-04-01T20:45:02;97772.66;;;12.65;100.00
40315;BME280;26021;45.640;11.302;2023-04-01T20:56:15;97787.34;;;12.88;100.00
40315;BME280;26021;45.640;11.302;2023-04-01T21:01:47;97789.22;;;12.87;100.00
40315;BME280;26021;45.640;11.302;2023-04-01T21:09:55;97790.78;;;12.70;100.00
40315;BME280;26021;45.640;11.302;2023-04-01T21:26:12;97800.69;;;12.63;100.00
40315;BME280;26021;45.640;11.302;2023-04-01T21:28:59;97806.97;;;12.88;100.00
40315;BME280;26021;45.640;11.302;2023-04-01T21:31:51;97747.81;;;12.38;100.00
40315;BME280;26021;45.640;11.302;2023-04-01T22:02:15;97794.97;;;12.53;100.00
40315;BME280;26021;45.640;11.302;2023-04-01T22:05:11;97787.06;;;12.26;100.00
40315;BME280;26021;45.640;11.302;2023-04-01T22:07:49;97789.22;;;12.49;100.00
40315;BME280;26021;45.640;11.302;2023-04-01T22:13:15;97788.50;;;12.29;100.00
40315;BME280;26021;45.640;11.302;2023-04-01T22:18:55;97787.16;;;12.06;100.00
40315;BME280;26021;45.640;11.302;2023-04-01T22:21:27;97781.31;;;12.23;100.00
40315;BME280;26021;45.640;11.302;2023-04-01T22:24:00;97788.13;;;12.19;100.00
40315;BME280;26021;45.640;11.302;2023-04-01T22:29:09;97780.81;;;11.94;100.00
40315;BME280;26021;45.640;11.302;2023-04-01T22:31:55;97780.00;;;11.81;100.00
40315;BME280;26021;45.640;11.302;2023-04-01T22:43:10;97734.50;;;11.61;100.00
40315;BME280;26021;45.640;11.302;2023-04-01T22:45:47;97785.34;;;11.81;100.00
40315;BME280;26021;45.640;11.302;2023-04-01T22:48:21;97779.16;;;11.73;100.00
40315;BME280;26021;45.640;11.302;2023-04-01T22:50:57;97717.44;;;11.42;100.00
40315;BME280;26021;45.640;11.302;2023-04-01T22:56:27;97723.84;;;11.41;100.00
40315;BME280;26021;45.640;11.302;2023-04-01T23:01:39;97752.41;;;11.60;100.00
40315;BME280;26021;45.640;11.302;2023-04-01T23:04:09;97721.69;;;11.69;100.00
40315;BME280;26021;45.640;11.302;2023-04-01T23:06:46;97751.13;;;11.76;100.00
40315;BME280;26021;45.640;11.302;2023-04-01T23:09:14;97782.25;;;11.84;100.00
40315;BME280;26021;45.640;11.302;2023-04-01T23:12:01;97784.13;;;11.70;100.00
40315;BME280;26021;45.640;11.302;2023-04-01T23:14:35;97703.69;;;11.32;100.00
40315;BME280;26021;45.640;11.302;2023-04-01T23:22:42;97783.69;;;11.73;100.00
40315;BME280;26021;45.640;11.302;2023-04-01T23:30:55;97765.63;;;11.42;100.00
40315;BME280;26021;45.640;11.302;2023-04-01T23:33:23;97794.44;;;11.66;100.00
40315;BME280;26021;45.640;11.302;2023-04-01T23:36:02;97797.53;;;11.57;100.00
40315;BME280;26021;45.640;11.302;2023-04-01T23:38:40;97792.81;;;11.45;100.00
40315;BME280;26021;45.640;11.302;2023-04-01T23:41:16;97740.56;;;11.17;100.00
40315;BME280;26021;45.640;11.302;2023-04-01T23:43:43;97806.41;;;11.57;100.00
40315;BME280;26021;45.640;11.302;2023-04-01T23:46:12;97799.59;;;11.61;100.00
40315;BME280;26021;45.640;11.302;2023-04-01T23:48:43;97772.63;;;11.50;100.00
40315;BME280;26021;45.640;11.302;2023-04-01T23:51:22;97792.56;;;11.67;100.00
40315;BME280;26021;45.640;11.302;2023-04-01T23:54:01;97795.44;;;11.85;100.00
40315;BME280;26021;45.640;11.302;2023-04-01T23:56:43;97764.13;;;11.72;100.00
40315;BME280;26021;45.640;11.302;2023-04-01T23:59:26;97756.19;;;11.39;100.00
